ADDS METAR Data INFO
IDs: Format: Raw Decoded Include TAF

Data at: 0216 UTC 18 Jan 2018

KMGY 180153Z AUTO 23006KT 10SM CLR M09/M13 A3043 RMK AO2 SLP323 T10941133
KMGY 180053Z AUTO 25006KT 10SM CLR M09/M13 A3044 RMK AO2 SLP327 T10941133
KMGY 172353Z AUTO 24005KT 10SM CLR M09/M13 A3045 RMK AO2 SLP330 T10891133 11072 21094 58009
KMGY 172253Z AUTO 26005KT 10SM CLR M08/M13 A3047 RMK AO2 SLP335 T10781133
KMGY 172153Z AUTO 24007KT 10SM CLR M07/M13 A3047 RMK AO2 SLP337 T10721128
KMGY 172053Z AUTO 24007KT 10SM FEW036 M08/M13 A3048 RMK AO2 SLP338 T10781128 56011
KMGY 171953Z AUTO 26006KT 10SM FEW031 BKN039 M08/M13 A3048 RMK AO2 SLP340 T10831133
KMGY 171853Z AUTO 24006KT 10SM CLR M09/M13 A3049 RMK AO2 SLP343 T10891133
KMGY 171753Z AUTO 26006KT 10SM CLR M09/M14 A3051 RMK AO2 SLP351 60000 T10941144 11094 21133 58006
KMGY 171653Z AUTO 24007KT 9SM CLR M11/M14 A3053 RMK AO2 SLP359 T11061144
KMGY 171610Z AUTO 24006KT 7SM SCT011 M11/M15 A3054 RMK AO2 T11111150
KMGY 171553Z AUTO 28004KT 5SM HZ OVC012 M12/M15 A3053 RMK AO2 SNE27 SLP360 P0000 T11171150
KMGY 171529Z AUTO 29005KT 4SM HZ OVC012 M12/M14 A3053 RMK AO2 SNE27 P0000 T11171144
KMGY 171513Z AUTO 29003KT 2 1/2SM -SN OVC013 M12/M15 A3053 RMK AO2 P0000 T11221150
KMGY 171453Z AUTO 29006KT 1 1/4SM -SN OVC013 M12/M15 A3053 RMK AO2 SLP358 P0000 60000 T11221150 53004
KMGY 171420Z AUTO 27004KT 1SM -SN BR OVC010 M12/M14 A3052 RMK AO2 P0000 T11221144
KMGY 171412Z AUTO 26005KT 1SM -SN BR OVC009 M13/M14 A3052 RMK AO2 P0000 T11281144
KMGY 171402Z AUTO 24004KT 3/4SM -SN BR OVC008 M13/M14 A3052 RMK AO2 P0000 T11281144
KMGY 171353Z AUTO 28005KT 1SM -SN BR OVC008 M13/M14 A3052 RMK AO2 SNB16 SLP356 P0000 T11281144
KMGY 171334Z AUTO 26003KT 1 1/4SM -SN BR OVC007 M13/M14 A3052 RMK AO2 SNB16 P0000 T11281144
KMGY 171326Z AUTO 26005KT 2SM -SN BR OVC007 M13/M14 A3052 RMK AO2 SNB16 P0000 T11281144
KMGY 171253Z AUTO 25004KT 5SM BR OVC007 M13/M15 A3051 RMK AO2 SLP354 T11331150
KMGY 171153Z AUTO 23005KT 7SM OVC008 M13/M16 A3052 RMK AO2 SLP355 60000 T11331156 11133 21139 53002
KMGY 171053Z AUTO 24005KT 7SM OVC009 M14/M16 A3051 RMK AO2 SLP354 T11391161
KMGY 170953Z AUTO 24004KT 5SM BR OVC014 M14/M16 A3051 RMK AO2 SNB0859E14B45E53 SLP352 P0000 T11391161
KMGY 170853Z AUTO 24005KT 6SM HZ OVC016 M14/M17 A3051 RMK AO2 SNB36E46 SLP352 P0000 60000 T11391167 53001
KMGY 170815Z AUTO 24006KT 6SM BR OVC015 M14/M16 A3051 RMK AO2 T11391161
KMGY 170753Z AUTO 24005KT 7SM OVC013 M14/M17 A3050 RMK AO2 SLP351 T11391167
KMGY 170653Z AUTO 25005KT 8SM OVC011 M14/M17 A3050 RMK AO2 SLP351 T11391167
KMGY 170553Z AUTO 23003KT 9SM OVC012 M14/M17 A3051 RMK AO2 SLP352 T11391172 11139 21139 58004
KMGY 170453Z AUTO 26005KT 10SM OVC014 M14/M17 A3052 RMK AO2 SLP359 T11391172 410831161
KMGY 170436Z AUTO 26005KT 10SM OVC014 M14/M17 A3053 RMK AO2 T11391172
KMGY 170353Z AUTO 25006KT 10SM OVC015 M14/M18 A3053 RMK AO2 SLP361 T11391178
KMGY 170253Z AUTO 28007KT 10SM OVC021 M14/M18 A3052 RMK AO2 SLP357 T11391178 51007
KMGY 170153Z AUTO 28006KT 10SM OVC019 M14/M18 A3052 RMK AO2 SLP357 T11391178
KMGY 170053Z AUTO 28009KT 10SM OVC019 M14/M18 A3051 RMK AO2 SLP353 T11391178
KMGY 162353Z AUTO 29009KT 10SM OVC020 M14/M18 A3050 RMK AO2 SLP350 T11391178 11122 21139 53013
KMGY 162253Z AUTO 28008KT 10SM OVC020 M13/M18 A3048 RMK AO2 SLP343 T11331178
KMGY 162153Z AUTO 29006KT 10SM OVC022 M13/M18 A3047 RMK AO2 SLP339 T11281178
KMGY 162053Z AUTO 24008KT 9SM OVC026 M12/M18 A3046 RMK AO2 SLP334 T11221178 53001
KMGY 161953Z AUTO 24006KT 10SM OVC023 M13/M18 A3045 RMK AO2 SLP331 T11281178
KMGY 161943Z AUTO 24006KT 10SM BKN023 M13/M18 A3044 RMK AO2 T11281183
KMGY 161853Z AUTO 26008KT 220V300 10SM CLR M13/M18 A3044 RMK AO2 SLP329 T11331183
KMGY 161753Z AUTO 24009KT 10SM CLR M14/M19 A3046 RMK AO2 SLP332 T11391189 11139 21161 58015
KMGY 161653Z AUTO 27007KT 10SM CLR M15/M19 A3049 RMK AO2 SLP344 T11501189
KMGY 161553Z AUTO 27008KT 6SM HZ CLR M16/M20 A3050 RMK AO2 SLP346 T11611200
KMGY 161453Z AUTO 25007KT 10SM CLR M16/M19 A3050 RMK AO2 SLP346 T11561194 53016